Terminal Aerodrome Forecast
Issued by NWS Grand Rapids, MI

Home | Current Version | Previous Version | Text Only | Print | Product List | Glossary On
Versions: 1 2 3 4 5 6 7 8 9 10 11 12 13 14 15 16 17 18 19 20 21 22 23
443
FTUS43 KGRR 301740
TAFGRR
TAF
KGRR 301740Z 3018/0118 08016G24KT 6SM -SHRA BR OVC009
      TEMPO 3018/3020 3SM -RA BR
     FM010600 10015G24KT 5SM -SHRA BR VCTS OVC008CB
     FM011100 18018G28KT P6SM VCSH OVC015
     FM011400 21020G30KT P6SM VCSH OVC025=

USA.gov is the U.S. government's official web portal to all federal, state and local government web resources and services.